Time;durP1;ratioP1;P1;durP2;ratioP2;P2;SDS_P1;SDS_P2;PMS_P1;PMS_P2;Temp;Humidity;BMP_temperature;BMP_pressure;BME280_temperature;BME280_humidity;BME280_pressure;Samples;Min_cycle;Max_cycle;Signal;HPM_P1;HPM_P2
2023/11/04 00:01:34;;;;;;;15.88;8.80;;;;;;;;;;5052707;28;20395;-52
2023/11/04 00:04:00;;;;;;;14.75;8.68;;;;;;;;;;5050948;28;20129;-50
2023/11/04 00:06:26;;;;;;;16.27;8.35;;;;;;;;;;5051001;28;20055;-56
2023/11/04 00:08:52;;;;;;;17.50;8.98;;;;;;;;;;5069548;28;20105;-53
2023/11/04 00:11:18;;;;;;;16.30;8.65;;;;;;;;;;5069329;28;20044;-55
2023/11/04 00:13:44;;;;;;;16.42;8.82;;;;;;;;;;5067366;28;20021;-52
2023/11/04 00:16:12;;;;;;;16.65;8.48;;;;;;;;;;5062737;28;20023;-52
2023/11/04 00:18:38;;;;;;;18.40;8.82;;;;;;;;;;5069686;28;20027;-55
2023/11/04 00:21:05;;;;;;;18.38;8.35;;;;;;;;;;5053416;28;20359;-55
2023/11/04 00:23:31;;;;;;;16.38;8.50;;;;;;;;;;5058195;28;20094;-57
2023/11/04 00:25:57;;;;;;;14.65;8.40;;;;;;;;;;5069747;28;20071;-58
2023/11/04 00:28:23;;;;;;;15.55;8.98;;;;;;;;;;5069830;28;20490;-55
2023/11/04 00:30:49;;;;;;;16.88;8.18;;;;;;;;;;5072258;28;20016;-56
2023/11/04 00:33:16;;;;;;;17.48;8.98;;;;;;;;;;5068269;28;20049;-50
2023/11/04 00:35:42;;;;;;;15.88;9.05;;;;;;;;;;5071308;28;20020;-55
2023/11/04 00:38:08;;;;;;;15.80;8.88;;;;;;;;;;5073383;28;20489;-54
2023/11/04 00:40:35;;;;;;;16.70;8.80;;;;;;;;;;5072848;28;20020;-55
2023/11/04 00:43:02;;;;;;;21.17;8.82;;;;;;;;;;5073094;28;20466;-56
2023/11/04 00:45:28;;;;;;;17.48;8.75;;;;;;;;;;5073214;28;20103;-54
2023/11/04 00:47:54;;;;;;;15.32;8.63;;;;;;;;;;5073129;28;20103;-54
2023/11/04 00:50:20;;;;;;;15.88;8.50;;;;;;;;;;5072584;28;20535;-55
2023/11/04 00:52:46;;;;;;;17.92;8.95;;;;;;;;;;5072931;28;20104;-56
2023/11/04 00:55:13;;;;;;;15.25;8.52;;;;;;;;;;5064928;28;20121;-54
2023/11/04 00:57:39;;;;;;;17.45;8.90;;;;;;;;;;5072921;28;20077;-54
2023/11/04 01:00:06;;;;;;;16.05;8.52;;;;;;;;;;5054835;28;20073;-54
2023/11/04 01:02:33;;;;;;;16.13;8.25;;;;;;;;;;5073050;28;20024;-58
2023/11/04 01:04:59;;;;;;;14.70;7.95;;;;;;;;;;5072905;28;20024;-58
2023/11/04 01:07:25;;;;;;;19.73;8.70;;;;;;;;;;5072956;28;20494;-56
2023/11/04 01:09:51;;;;;;;17.02;8.63;;;;;;;;;;5063951;28;20112;-55
2023/11/04 01:12:17;;;;;;;17.30;8.68;;;;;;;;;;5072575;28;20023;-56
2023/11/04 01:14:43;;;;;;;14.60;8.05;;;;;;;;;;5072492;28;20099;-53
2023/11/04 01:17:09;;;;;;;13.93;7.80;;;;;;;;;;5072609;28;20088;-55
2023/11/04 01:19:35;;;;;;;15.57;8.00;;;;;;;;;;5054385;28;20465;-55
2023/11/04 01:22:02;;;;;;;14.68;8.40;;;;;;;;;;5054747;28;20024;-54
2023/11/04 01:24:28;;;;;;;20.13;8.63;;;;;;;;;;5072445;28;20032;-52
2023/11/04 01:26:54;;;;;;;14.57;8.18;;;;;;;;;;5072328;28;20108;-56
2023/11/04 01:29:21;;;;;;;16.23;8.18;;;;;;;;;;5072324;28;20032;-56
2023/11/04 01:31:48;;;;;;;15.07;7.65;;;;;;;;;;5072432;28;20060;-57
2023/11/04 01:34:14;;;;;;;17.25;8.30;;;;;;;;;;5072366;28;20017;-55
2023/11/04 01:36:40;;;;;;;18.65;8.35;;;;;;;;;;5072208;28;20031;-53
2023/11/04 01:39:07;;;;;;;17.17;7.72;;;;;;;;;;5072342;28;20111;-55
2023/11/04 01:41:33;;;;;;;15.10;7.60;;;;;;;;;;5070598;28;20025;-54
2023/11/04 01:43:59;;;;;;;16.00;8.63;;;;;;;;;;5071865;28;20116;-51
2023/11/04 01:46:25;;;;;;;14.23;7.85;;;;;;;;;;5071879;28;20043;-54
2023/11/04 01:48:51;;;;;;;14.20;7.80;;;;;;;;;;5063512;28;20628;-58
2023/11/04 01:51:17;;;;;;;16.23;8.68;;;;;;;;;;5071402;28;20036;-54
2023/11/04 01:53:45;;;;;;;14.15;7.50;;;;;;;;;;5071678;28;20017;-57
2023/11/04 01:56:13;;;;;;;14.50;8.20;;;;;;;;;;5071771;28;20016;-57
2023/11/04 01:58:39;;;;;;;15.93;8.33;;;;;;;;;;5071630;28;20025;-57
2023/11/04 02:01:05;;;;;;;13.73;7.90;;;;;;;;;;5071227;28;20024;-53
2023/11/04 02:03:31;;;;;;;16.55;8.05;;;;;;;;;;5071557;28;20052;-54
2023/11/04 02:05:57;;;;;;;14.57;8.60;;;;;;;;;;5053436;28;20027;-55
2023/11/04 02:08:23;;;;;;;14.32;7.78;;;;;;;;;;5071489;28;20029;-57
2023/11/04 02:10:49;;;;;;;15.63;7.90;;;;;;;;;;5062963;28;20032;-51
2023/11/04 02:13:15;;;;;;;16.15;8.00;;;;;;;;;;5063245;28;20017;-52
2023/11/04 02:15:41;;;;;;;14.82;8.10;;;;;;;;;;5071107;28;20027;-54
2023/11/04 02:18:07;;;;;;;14.15;7.63;;;;;;;;;;5071427;28;20404;-56
2023/11/04 02:20:34;;;;;;;15.85;8.10;;;;;;;;;;5071132;28;20086;-56
2023/11/04 02:23:00;;;;;;;14.90;7.80;;;;;;;;;;5053376;28;20055;-55
2023/11/04 02:25:34;;;;;;;19.67;8.20;;;;;;;;;;5064380;28;20434;-56
2023/11/04 02:28:00;;;;;;;14.60;8.10;;;;;;;;;;5053231;28;20115;-54
2023/11/04 02:30:26;;;;;;;14.27;8.18;;;;;;;;;;5052891;28;20071;-54
2023/11/04 02:32:52;;;;;;;15.70;8.18;;;;;;;;;;5071138;28;20159;-56
2023/11/04 02:35:19;;;;;;;13.52;8.07;;;;;;;;;;5071016;28;20028;-57
2023/11/04 02:37:46;;;;;;;13.43;7.68;;;;;;;;;;5070950;28;20495;-57
2023/11/04 02:40:12;;;;;;;13.38;7.70;;;;;;;;;;5070580;28;20031;-53
2023/11/04 02:42:39;;;;;;;13.32;7.57;;;;;;;;;;5070655;28;20025;-55
2023/11/04 02:45:06;;;;;;;15.60;7.97;;;;;;;;;;5070786;28;20016;-53
2023/11/04 02:47:32;;;;;;;13.90;7.50;;;;;;;;;;5070874;28;20032;-55
2023/11/04 02:49:58;;;;;;;13.23;7.53;;;;;;;;;;5070181;28;20402;-53
2023/11/04 02:52:26;;;;;;;13.15;7.53;;;;;;;;;;5052549;28;20013;-54
2023/11/04 02:54:52;;;;;;;13.32;7.68;;;;;;;;;;5044506;28;20483;-57
2023/11/04 02:57:18;;;;;;;16.20;7.78;;;;;;;;;;5070497;28;20024;-55
2023/11/04 02:59:44;;;;;;;13.15;7.57;;;;;;;;;;5069938;28;20501;-54
2023/11/04 03:02:10;;;;;;;14.05;8.10;;;;;;;;;;5070329;28;20092;-54
2023/11/04 03:04:39;;;;;;;13.88;8.00;;;;;;;;;;5070700;28;20616;-60
2023/11/04 03:07:05;;;;;;;14.30;7.60;;;;;;;;;;5052480;28;20021;-57
2023/11/04 03:09:31;;;;;;;13.43;7.68;;;;;;;;;;5052078;28;20029;-54
2023/11/04 03:11:57;;;;;;;14.43;7.85;;;;;;;;;;5070014;28;20409;-56
2023/11/04 03:14:27;;;;;;;14.15;8.20;;;;;;;;;;5063853;28;20036;-57
2023/11/04 03:16:53;;;;;;;13.40;7.78;;;;;;;;;;5069052;28;20020;-56
2023/11/04 03:19:19;;;;;;;14.20;8.23;;;;;;;;;;5070007;28;20039;-57
2023/11/04 03:21:46;;;;;;;14.05;8.13;;;;;;;;;;5070048;28;20024;-50
2023/11/04 03:24:12;;;;;;;17.98;8.80;;;;;;;;;;5052929;28;20028;-51
2023/11/04 03:26:38;;;;;;;13.38;7.88;;;;;;;;;;5071126;28;20474;-57
2023/11/04 03:29:04;;;;;;;13.80;7.90;;;;;;;;;;5053214;28;20024;-57
2023/11/04 03:31:30;;;;;;;13.15;7.68;;;;;;;;;;5063639;28;20033;-57
2023/11/04 03:33:56;;;;;;;14.00;7.90;;;;;;;;;;5070430;28;20382;-57
2023/11/04 03:36:22;;;;;;;13.70;8.00;;;;;;;;;;5052300;28;20021;-57
2023/11/04 03:38:48;;;;;;;13.70;7.95;;;;;;;;;;5070181;28;20048;-57
2023/11/04 03:41:14;;;;;;;14.02;7.80;;;;;;;;;;5069714;28;20078;-54
2023/11/04 03:43:40;;;;;;;14.20;7.88;;;;;;;;;;5051892;28;20024;-57
2023/11/04 03:46:07;;;;;;;14.35;7.90;;;;;;;;;;5053892;28;20095;-59
2023/11/04 03:48:33;;;;;;;14.52;7.80;;;;;;;;;;5053631;28;20052;-57
2023/11/04 03:50:59;;;;;;;14.80;8.02;;;;;;;;;;5069716;28;20040;-56
2023/11/04 03:53:25;;;;;;;13.85;8.07;;;;;;;;;;5052539;28;20021;-57
2023/11/04 03:55:51;;;;;;;15.98;8.00;;;;;;;;;;5061519;28;20032;-57
2023/11/04 03:58:17;;;;;;;15.50;7.90;;;;;;;;;;5069939;28;20024;-57
2023/11/04 04:00:43;;;;;;;13.45;7.97;;;;;;;;;;5069357;28;20083;-54
2023/11/04 04:03:09;;;;;;;14.40;8.15;;;;;;;;;;5069828;28;20017;-54
2023/11/04 04:05:35;;;;;;;14.63;8.00;;;;;;;;;;5054225;28;20482;-53
2023/11/04 04:08:02;;;;;;;13.70;8.05;;;;;;;;;;5052214;28;20079;-58
2023/11/04 04:10:28;;;;;;;14.27;8.02;;;;;;;;;;5068532;28;20647;-56
2023/11/04 04:12:54;;;;;;;14.27;8.40;;;;;;;;;;5073525;28;20024;-57
2023/11/04 04:15:20;;;;;;;13.77;8.23;;;;;;;;;;5067695;28;20035;-56
2023/11/04 04:17:46;;;;;;;14.00;7.90;;;;;;;;;;5045356;28;20017;-56
2023/11/04 04:20:13;;;;;;;13.52;8.10;;;;;;;;;;5073265;28;20028;-55
2023/11/04 04:22:39;;;;;;;14.02;7.97;;;;;;;;;;5055760;28;20029;-53
2023/11/04 04:25:05;;;;;;;14.00;7.95;;;;;;;;;;5073796;28;20021;-56
2023/11/04 04:27:31;;;;;;;13.55;7.72;;;;;;;;;;5058568;28;20810;-56
2023/11/04 04:29:57;;;;;;;14.00;8.20;;;;;;;;;;5050731;28;20049;-58
2023/11/04 04:32:23;;;;;;;13.60;7.85;;;;;;;;;;5061651;28;20095;-51
2023/11/04 04:34:49;;;;;;;14.48;7.60;;;;;;;;;;5073126;28;20023;-55
2023/11/04 04:37:15;;;;;;;13.38;7.68;;;;;;;;;;5073029;28;20012;-52
2023/11/04 04:39:41;;;;;;;13.23;7.50;;;;;;;;;;5072641;28;20024;-55
2023/11/04 04:42:07;;;;;;;12.93;7.43;;;;;;;;;;5072689;28;20496;-52
2023/11/04 04:44:36;;;;;;;13.18;7.53;;;;;;;;;;5072837;28;20028;-55
2023/11/04 04:47:02;;;;;;;13.80;7.63;;;;;;;;;;5064556;28;20524;-58
2023/11/04 04:49:28;;;;;;;13.35;7.65;;;;;;;;;;5054252;28;20485;-54
2023/11/04 04:51:54;;;;;;;12.98;7.38;;;;;;;;;;5074010;28;20035;-60
2023/11/04 04:54:20;;;;;;;14.13;7.80;;;;;;;;;;5072755;28;20526;-60
2023/11/04 04:56:46;;;;;;;13.63;7.80;;;;;;;;;;5046344;28;20025;-57
2023/11/04 04:59:12;;;;;;;13.55;7.85;;;;;;;;;;5064280;28;20024;-60
2023/11/04 05:01:39;;;;;;;13.52;7.80;;;;;;;;;;5072316;28;20025;-60
2023/11/04 05:04:05;;;;;;;13.90;8.00;;;;;;;;;;5072628;28;20027;-60
2023/11/04 05:06:31;;;;;;;13.55;8.20;;;;;;;;;;5072380;28;20028;-59
2023/11/04 05:08:57;;;;;;;13.48;7.90;;;;;;;;;;5072280;28;20047;-61
2023/11/04 05:11:23;;;;;;;13.80;7.80;;;;;;;;;;5072140;28;20028;-59
2023/11/04 05:13:49;;;;;;;13.85;7.93;;;;;;;;;;5072352;28;20025;-59
2023/11/04 05:16:15;;;;;;;14.60;8.70;;;;;;;;;;5072196;28;20024;-59
2023/11/04 05:18:41;;;;;;;14.43;8.55;;;;;;;;;;5054505;28;20039;-56
2023/11/04 05:21:07;;;;;;;13.50;7.80;;;;;;;;;;5072325;28;20024;-60
2023/11/04 05:23:34;;;;;;;13.38;7.95;;;;;;;;;;5064656;28;20094;-59
2023/11/04 05:26:00;;;;;;;13.65;8.02;;;;;;;;;;5072116;28;20028;-56
2023/11/04 05:28:29;;;;;;;15.45;8.23;;;;;;;;;;5072100;28;20035;-59
2023/11/04 05:30:55;;;;;;;14.20;8.10;;;;;;;;;;5053654;28;20025;-60
2023/11/04 05:33:21;;;;;;;13.98;7.80;;;;;;;;;;5072259;28;20071;-61
2023/11/04 05:35:48;;;;;;;17.88;8.35;;;;;;;;;;5071834;28;20020;-59
2023/11/04 05:38:14;;;;;;;14.00;8.20;;;;;;;;;;5071938;28;20474;-59
2023/11/04 05:40:40;;;;;;;13.57;8.38;;;;;;;;;;5071600;28;20090;-60
2023/11/04 05:43:06;;;;;;;14.63;8.90;;;;;;;;;;5072046;28;20023;-58
2023/11/04 05:45:32;;;;;;;13.63;8.18;;;;;;;;;;5071996;28;20033;-59
2023/11/04 05:47:58;;;;;;;15.32;8.70;;;;;;;;;;5053855;28;20146;-61
2023/11/04 05:50:24;;;;;;;13.95;8.27;;;;;;;;;;5079042;22;20076;-64
2023/11/04 05:52:51;;;;;;;14.25;8.18;;;;;;;;;;5083401;28;20050;-61
2023/11/04 05:55:17;;;;;;;13.90;8.05;;;;;;;;;;5097740;28;20024;-61
2023/11/04 05:57:43;;;;;;;13.57;8.30;;;;;;;;;;5100992;28;20044;-63
2023/11/04 06:00:12;;;;;;;13.75;8.00;;;;;;;;;;5098528;28;20021;-63
2023/11/04 06:02:38;;;;;;;15.60;9.20;;;;;;;;;;5083135;28;20027;-63
2023/11/04 06:05:06;;;;;;;13.73;8.20;;;;;;;;;;5057162;28;20475;-63
2023/11/04 06:07:33;;;;;;;14.00;8.35;;;;;;;;;;5065576;28;20024;-63
2023/11/04 06:09:59;;;;;;;14.68;8.27;;;;;;;;;;5083065;28;20660;-64
2023/11/04 06:12:25;;;;;;;13.70;8.07;;;;;;;;;;5083510;28;20021;-63
2023/11/04 06:14:51;;;;;;;13.60;8.10;;;;;;;;;;5081062;28;20047;-63
2023/11/04 06:17:17;;;;;;;13.57;8.20;;;;;;;;;;5076141;28;20446;-63
2023/11/04 06:19:43;;;;;;;15.32;8.23;;;;;;;;;;5082705;28;20103;-63
2023/11/04 06:22:09;;;;;;;14.30;8.27;;;;;;;;;;5064770;28;20020;-64
2023/11/04 06:24:41;;;;;;;13.85;8.52;;;;;;;;;;5082974;28;20088;-64
2023/11/04 06:27:07;;;;;;;14.60;8.55;;;;;;;;;;5069652;28;20461;-64
2023/11/04 06:29:33;;;;;;;13.90;8.60;;;;;;;;;;5070711;28;20029;-63
2023/11/04 06:31:59;;;;;;;16.13;8.80;;;;;;;;;;5079557;28;20048;-64
2023/11/04 06:34:25;;;;;;;15.32;8.68;;;;;;;;;;5059039;28;20528;-63
2023/11/04 06:36:51;;;;;;;14.93;8.43;;;;;;;;;;5081634;28;20103;-61
2023/11/04 06:39:17;;;;;;;14.02;8.10;;;;;;;;;;5074345;28;20032;-62
2023/11/04 06:41:43;;;;;;;15.02;8.20;;;;;;;;;;5074292;28;20519;-63
2023/11/04 06:44:10;;;;;;;14.00;8.13;;;;;;;;;;5056336;28;20414;-62
2023/11/04 06:46:37;;;;;;;14.00;8.02;;;;;;;;;;5082915;28;20044;-62
2023/11/04 06:49:03;;;;;;;14.57;7.95;;;;;;;;;;5082399;28;20020;-64
2023/11/04 06:51:29;;;;;;;13.45;7.85;;;;;;;;;;5082368;28;20036;-62
2023/11/04 06:53:57;;;;;;;14.23;8.13;;;;;;;;;;5064098;28;20032;-63
2023/11/04 06:56:26;;;;;;;13.82;8.10;;;;;;;;;;5064716;28;20047;-64
2023/11/04 06:58:52;;;;;;;15.90;8.65;;;;;;;;;;5074239;28;20025;-64
2023/11/04 07:01:19;;;;;;;15.13;8.40;;;;;;;;;;5081636;28;20039;-62
2023/11/04 07:03:47;;;;;;;14.32;8.10;;;;;;;;;;5079371;28;20024;-62
2023/11/04 07:06:13;;;;;;;13.68;8.50;;;;;;;;;;5079265;28;20024;-64
2023/11/04 07:08:40;;;;;;;16.63;8.40;;;;;;;;;;5062061;28;20028;-62
2023/11/04 07:11:06;;;;;;;14.00;8.35;;;;;;;;;;5053901;28;20085;-63
2023/11/04 07:13:34;;;;;;;15.57;8.60;;;;;;;;;;5079468;28;20032;-63
2023/11/04 07:16:00;;;;;;;14.32;8.30;;;;;;;;;;5079139;28;20021;-62
2023/11/04 07:18:26;;;;;;;13.82;8.50;;;;;;;;;;5078348;28;20025;-61
2023/11/04 07:20:52;;;;;;;14.98;8.30;;;;;;;;;;5052201;28;20084;-64
2023/11/04 07:23:18;;;;;;;13.65;8.40;;;;;;;;;;5058715;28;20043;-63
2023/11/04 07:25:44;;;;;;;13.85;8.52;;;;;;;;;;5063003;28;20028;-63
2023/11/04 07:28:10;;;;;;;14.35;8.70;;;;;;;;;;5082647;28;20028;-63
2023/11/04 07:30:37;;;;;;;15.38;8.68;;;;;;;;;;5073305;28;20301;-63
2023/11/04 07:33:04;;;;;;;14.20;8.95;;;;;;;;;;5081703;28;20032;-63
2023/11/04 07:35:30;;;;;;;14.30;8.60;;;;;;;;;;5063632;28;20046;-63
2023/11/04 07:37:56;;;;;;;13.80;8.02;;;;;;;;;;5081609;28;20028;-64
2023/11/04 07:40:26;;;;;;;15.25;8.73;;;;;;;;;;5080526;28;20718;-63
2023/11/04 07:42:52;;;;;;;14.52;8.70;;;;;;;;;;5063019;28;20028;-63
2023/11/04 07:45:24;;;;;;;14.00;8.50;;;;;;;;;;5082316;28;20039;-64
2023/11/04 07:47:59;;;;;;;14.13;8.60;;;;;;;;;;5081748;28;20068;-64
2023/11/04 07:50:25;;;;;;;13.40;8.10;;;;;;;;;;5063285;28;20051;-64
2023/11/04 07:52:53;;;;;;;15.25;8.70;;;;;;;;;;5079118;28;20063;-64
2023/11/04 07:55:21;;;;;;;14.30;8.20;;;;;;;;;;5075191;28;20039;-63
2023/11/04 07:57:48;;;;;;;13.90;8.70;;;;;;;;;;5080295;28;20390;-64
2023/11/04 08:00:14;;;;;;;13.80;8.40;;;;;;;;;;5063807;28;20020;-63
2023/11/04 08:02:40;;;;;;;13.65;8.38;;;;;;;;;;5061927;28;20473;-63
2023/11/04 08:05:10;;;;;;;14.75;8.90;;;;;;;;;;5082820;28;20051;-64
2023/11/04 08:07:39;;;;;;;16.65;8.70;;;;;;;;;;5073652;28;20545;-63
2023/11/04 08:10:06;;;;;;;13.82;8.55;;;;;;;;;;5065005;28;20025;-64
2023/11/04 08:12:33;;;;;;;13.93;9.00;;;;;;;;;;5081375;28;20017;-64
2023/11/04 08:14:59;;;;;;;13.88;8.50;;;;;;;;;;5081512;28;20080;-62
2023/11/04 08:17:25;;;;;;;14.75;8.70;;;;;;;;;;5041943;28;20055;-62
2023/11/04 08:19:51;;;;;;;13.88;8.60;;;;;;;;;;5030000;28;20063;-53
2023/11/04 08:22:17;;;;;;;13.80;8.45;;;;;;;;;;5065333;28;20410;-51
2023/11/04 08:24:43;;;;;;;14.45;8.90;;;;;;;;;;5067567;28;20032;-53
2023/11/04 08:27:10;;;;;;;14.40;9.07;;;;;;;;;;5068000;28;20017;-50
2023/11/04 08:29:36;;;;;;;13.95;8.50;;;;;;;;;;5067560;28;20606;-53
2023/11/04 08:32:02;;;;;;;13.88;8.90;;;;;;;;;;5067802;28;20058;-55
2023/11/04 08:34:28;;;;;;;14.10;8.70;;;;;;;;;;5063550;28;20017;-50
2023/11/04 08:36:54;;;;;;;14.77;9.48;;;;;;;;;;5067506;28;20104;-50
2023/11/04 08:39:20;;;;;;;16.05;9.50;;;;;;;;;;5050081;28;20486;-50
2023/11/04 08:41:46;;;;;;;14.52;8.75;;;;;;;;;;5050658;28;20068;-50
2023/11/04 08:44:12;;;;;;;14.10;8.77;;;;;;;;;;5068008;28;20398;-48
2023/11/04 08:46:38;;;;;;;13.85;8.85;;;;;;;;;;5067829;28;20024;-51
2023/11/04 08:49:06;;;;;;;14.50;8.60;;;;;;;;;;5033916;28;20115;-47
2023/11/04 08:51:32;;;;;;;14.00;8.80;;;;;;;;;;5066115;28;20024;-51
2023/11/04 08:53:58;;;;;;;14.48;8.90;;;;;;;;;;5068821;28;20025;-54
2023/11/04 08:56:24;;;;;;;14.23;9.10;;;;;;;;;;5043085;28;20463;-52
2023/11/04 08:58:53;;;;;;;13.80;8.60;;;;;;;;;;5051279;28;20021;-54
2023/11/04 09:01:21;;;;;;;14.85;9.35;;;;;;;;;;5050365;28;20477;-53
2023/11/04 09:03:47;;;;;;;15.18;9.27;;;;;;;;;;5051452;28;20108;-55
2023/11/04 09:06:13;;;;;;;14.48;8.93;;;;;;;;;;5050164;28;20203;-55
2023/11/04 09:08:39;;;;;;;14.68;8.90;;;;;;;;;;5051495;28;20037;-54
2023/11/04 09:11:05;;;;;;;13.98;8.50;;;;;;;;;;5049749;28;20060;-57
2023/11/04 09:13:31;;;;;;;14.35;9.30;;;;;;;;;;5051594;28;20088;-52
2023/11/04 09:15:57;;;;;;;14.68;8.98;;;;;;;;;;5051050;28;20082;-56
2023/11/04 09:18:23;;;;;;;14.85;9.35;;;;;;;;;;5043483;28;20134;-55
2023/11/04 09:20:49;;;;;;;16.83;8.95;;;;;;;;;;5050702;28;20065;-54
2023/11/04 09:23:15;;;;;;;15.00;8.60;;;;;;;;;;5050873;28;20025;-55
2023/11/04 09:25:41;;;;;;;13.90;8.50;;;;;;;;;;5050944;28;20044;-55
2023/11/04 09:28:07;;;;;;;14.02;9.15;;;;;;;;;;5050850;28;20028;-55
2023/11/04 09:30:33;;;;;;;16.17;8.57;;;;;;;;;;5050587;28;20029;-55
2023/11/04 09:32:59;;;;;;;14.05;8.60;;;;;;;;;;5050970;28;20141;-58
2023/11/04 09:35:25;;;;;;;14.45;8.98;;;;;;;;;;5032614;28;20023;-51
2023/11/04 09:37:51;;;;;;;14.20;8.90;;;;;;;;;;5050549;28;20013;-53
2023/11/04 09:40:17;;;;;;;14.27;8.38;;;;;;;;;;5050213;28;20506;-52
2023/11/04 09:42:47;;;;;;;14.90;9.45;;;;;;;;;;5050784;28;20185;-52
2023/11/04 09:45:16;;;;;;;14.52;8.10;;;;;;;;;;5050666;28;20398;-54
2023/11/04 09:47:42;;;;;;;14.38;9.00;;;;;;;;;;5050483;28;20458;-54
2023/11/04 09:50:10;;;;;;;14.85;8.75;;;;;;;;;;5050437;28;20060;-54
2023/11/04 09:52:38;;;;;;;14.00;8.50;;;;;;;;;;5050874;28;20017;-54
2023/11/04 09:55:05;;;;;;;13.90;8.65;;;;;;;;;;5051647;28;20030;-56
2023/11/04 09:57:32;;;;;;;13.80;8.30;;;;;;;;;;5050780;28;20112;-53
2023/11/04 09:59:59;;;;;;;14.40;8.25;;;;;;;;;;5032759;28;20243;-55
2023/11/04 10:02:25;;;;;;;14.65;8.80;;;;;;;;;;5049243;28;20108;-51
2023/11/04 10:04:52;;;;;;;13.85;8.40;;;;;;;;;;5050730;28;20120;-56
2023/11/04 10:07:19;;;;;;;13.80;8.70;;;;;;;;;;5032470;28;20052;-55
2023/11/04 10:09:45;;;;;;;14.15;8.85;;;;;;;;;;5050189;28;20475;-55
2023/11/04 10:12:12;;;;;;;13.75;8.65;;;;;;;;;;5050082;28;20029;-56
2023/11/04 10:14:38;;;;;;;16.38;8.30;;;;;;;;;;5032289;28;20029;-54
2023/11/04 10:17:05;;;;;;;13.95;8.63;;;;;;;;;;5050247;28;20025;-54
2023/11/04 10:19:32;;;;;;;13.70;8.38;;;;;;;;;;5031406;28;20025;-55
2023/11/04 10:21:59;;;;;;;14.10;8.50;;;;;;;;;;5049736;28;20032;-52
2023/11/04 10:24:25;;;;;;;14.20;8.30;;;;;;;;;;5049985;28;20136;-53
2023/11/04 10:26:51;;;;;;;15.13;9.00;;;;;;;;;;5049586;28;20045;-55
2023/11/04 10:29:17;;;;;;;13.90;8.63;;;;;;;;;;5049603;28;20036;-55
2023/11/04 10:31:46;;;;;;;14.38;8.50;;;;;;;;;;5049387;28;20044;-56
2023/11/04 10:34:12;;;;;;;;;;;;;;;;;;5049934;28;20036;-54
2023/11/04 10:36:38;;;;;;;14.70;8.77;;;;;;;;;;5046151;28;20014;-56
2023/11/04 10:39:05;;;;;;;14.32;9.05;;;;;;;;;;5044871;28;20016;-55
2023/11/04 10:41:57;;;;;;;14.88;8.70;;;;;;;;;;5062268;28;20472;-56
2023/11/04 10:44:28;;;;;;;14.23;9.00;;;;;;;;;;5026390;28;20052;-56
2023/11/04 10:47:13;;;;;;;13.65;8.45;;;;;;;;;;5067763;28;20033;-56
2023/11/04 10:49:57;;;;;;;14.02;8.80;;;;;;;;;;5069121;28;20025;-58
2023/11/04 10:52:26;;;;;;;14.38;8.70;;;;;;;;;;5069335;28;20052;-54
2023/11/04 10:54:56;;;;;;;15.63;9.30;;;;;;;;;;5069174;28;20047;-54
2023/11/04 10:57:26;;;;;;;14.35;8.75;;;;;;;;;;5069256;28;20021;-56
2023/11/04 11:00:09;;;;;;;13.85;8.75;;;;;;;;;;5068207;28;20037;-56
2023/11/04 11:02:36;;;;;;;15.10;8.50;;;;;;;;;;5068638;28;20335;-53
2023/11/04 11:05:03;;;;;;;14.13;8.73;;;;;;;;;;4714825;28;10000316;-58
2023/11/04 11:07:29;;;;;;;14.45;9.02;;;;;;;;;;5047497;28;20728;-52
2023/11/04 11:09:56;;;;;;;15.52;9.57;;;;;;;;;;5055088;28;20055;-56
2023/11/04 11:12:22;;;;;;;14.20;9.10;;;;;;;;;;5060158;28;20055;-54
2023/11/04 11:14:50;;;;;;;14.30;8.95;;;;;;;;;;5048757;28;20040;-55
2023/11/04 11:17:16;;;;;;;15.23;9.23;;;;;;;;;;5048625;28;20036;-52
2023/11/04 11:19:51;;;;;;;14.13;9.05;;;;;;;;;;5048321;28;20055;-57
2023/11/04 11:22:24;;;;;;;15.38;9.35;;;;;;;;;;5045989;28;20104;-54
2023/11/04 11:24:56;;;;;;;14.38;8.75;;;;;;;;;;5049190;28;20021;-55
2023/11/04 11:27:22;;;;;;;13.80;8.85;;;;;;;;;;5046601;28;20108;-56
2023/11/04 11:29:48;;;;;;;14.13;9.13;;;;;;;;;;5049491;28;20024;-56
2023/11/04 11:32:16;;;;;;;14.30;9.20;;;;;;;;;;5053652;28;20425;-55
2023/11/04 11:34:49;;;;;;;14.57;9.07;;;;;;;;;;5061978;28;20029;-56
2023/11/04 11:37:17;;;;;;;14.02;8.95;;;;;;;;;;5047197;28;20068;-56
2023/11/04 11:39:43;;;;;;;14.40;9.57;;;;;;;;;;5061888;28;20013;-57
2023/11/04 11:42:09;;;;;;;14.70;9.38;;;;;;;;;;5065238;28;20048;-58
2023/11/04 11:44:35;;;;;;;14.13;9.10;;;;;;;;;;5065225;28;20139;-58
2023/11/04 11:47:04;;;;;;;14.30;8.90;;;;;;;;;;5065556;28;20040;-58
2023/11/04 11:49:33;;;;;;;14.57;9.38;;;;;;;;;;5065442;28;20111;-56
2023/11/04 11:52:00;;;;;;;13.98;9.07;;;;;;;;;;5066078;28;20474;-55
2023/11/04 11:54:27;;;;;;;14.70;9.23;;;;;;;;;;5039091;28;20021;-54
2023/11/04 11:56:53;;;;;;;16.70;9.50;;;;;;;;;;5065721;28;20028;-54
2023/11/04 11:59:19;;;;;;;14.95;9.52;;;;;;;;;;5060147;28;20047;-59
2023/11/04 12:01:45;;;;;;;15.18;9.18;;;;;;;;;;5062501;28;20502;-54
2023/11/04 12:04:12;;;;;;;15.55;9.18;;;;;;;;;;5047864;28;20064;-55
2023/11/04 12:06:40;;;;;;;15.75;9.25;;;;;;;;;;5062952;28;20067;-56
2023/11/04 12:09:07;;;;;;;16.55;8.98;;;;;;;;;;5045449;28;20265;-51
2023/11/04 12:11:33;;;;;;;16.33;9.60;;;;;;;;;;5063034;28;20032;-55
2023/11/04 12:14:00;;;;;;;16.95;9.38;;;;;;;;;;5057197;28;20035;-58
2023/11/04 12:16:26;;;;;;;14.45;9.18;;;;;;;;;;5065140;28;20025;-58
2023/11/04 12:18:53;;;;;;;14.82;8.73;;;;;;;;;;5043996;28;20712;-61
2023/11/04 12:21:19;;;;;;;15.82;9.55;;;;;;;;;;5059325;28;20026;-58
2023/11/04 12:23:48;;;;;;;14.63;8.82;;;;;;;;;;5044298;28;20037;-57
2023/11/04 12:26:14;;;;;;;17.83;9.75;;;;;;;;;;5036073;28;20083;-57
2023/11/04 12:28:41;;;;;;;14.63;8.60;;;;;;;;;;5065382;28;20157;-57
2023/11/04 12:31:07;;;;;;;16.17;9.60;;;;;;;;;;5048324;28;20027;-57
2023/11/04 12:33:36;;;;;;;14.75;8.85;;;;;;;;;;5048703;28;20169;-59
2023/11/04 12:36:04;;;;;;;14.63;8.60;;;;;;;;;;5048844;28;20461;-57
2023/11/04 12:38:31;;;;;;;14.75;8.48;;;;;;;;;;5049373;28;20025;-51
2023/11/04 12:40:57;;;;;;;15.50;9.65;;;;;;;;;;5056984;28;20059;-54
2023/11/04 12:43:23;;;;;;;15.20;8.90;;;;;;;;;;5063221;28;20023;-55
2023/11/04 12:45:52;;;;;;;14.77;8.82;;;;;;;;;;5068933;28;20032;-55
2023/11/04 12:48:18;;;;;;;14.05;8.65;;;;;;;;;;5069047;28;20108;-55
2023/11/04 12:50:44;;;;;;;14.77;8.82;;;;;;;;;;5068285;28;20033;-52
2023/11/04 12:53:11;;;;;;;14.75;8.68;;;;;;;;;;5064981;28;20031;-55
2023/11/04 12:55:37;;;;;;;15.60;8.90;;;;;;;;;;5066803;28;20043;-55
2023/11/04 12:58:04;;;;;;;14.93;8.95;;;;;;;;;;5069742;28;20012;-60
2023/11/04 13:00:30;;;;;;;14.88;8.48;;;;;;;;;;5070995;28;20086;-57
2023/11/04 13:02:56;;;;;;;14.05;8.60;;;;;;;;;;5071019;28;20035;-54
2023/11/04 13:05:23;;;;;;;14.85;9.23;;;;;;;;;;5067987;28;20108;-58
2023/11/04 13:07:49;;;;;;;15.02;8.40;;;;;;;;;;5063482;28;20336;-55
2023/11/04 13:10:15;;;;;;;14.20;8.73;;;;;;;;;;5059926;28;20287;-58
2023/11/04 13:12:41;;;;;;;14.50;8.57;;;;;;;;;;5066961;28;20445;-56
2023/11/04 13:15:08;;;;;;;14.23;8.80;;;;;;;;;;5062668;28;20032;-56
2023/11/04 13:17:34;;;;;;;14.13;8.52;;;;;;;;;;5070325;28;20021;-59
2023/11/04 13:20:00;;;;;;;14.20;8.63;;;;;;;;;;4706371;28;10000763;-58
2023/11/04 13:22:26;;;;;;;13.82;8.70;;;;;;;;;;5040411;28;20650;-59
2023/11/04 13:24:52;;;;;;;14.45;8.80;;;;;;;;;;5057542;28;20114;-58
2023/11/04 13:27:20;;;;;;;14.75;9.05;;;;;;;;;;5067772;28;20052;-56
2023/11/04 13:29:47;;;;;;;18.40;8.73;;;;;;;;;;5049468;28;20028;-54
2023/11/04 13:32:13;;;;;;;15.45;9.45;;;;;;;;;;5067951;28;20064;-56
2023/11/04 13:34:39;;;;;;;17.98;9.65;;;;;;;;;;5067506;28;20502;-57
2023/11/04 13:37:05;;;;;;;14.38;9.02;;;;;;;;;;5050877;28;20108;-56
2023/11/04 13:39:31;;;;;;;13.65;8.55;;;;;;;;;;5067609;28;20088;-57
2023/11/04 13:41:57;;;;;;;13.75;8.70;;;;;;;;;;5041698;28;20116;-53
2023/11/04 13:44:23;;;;;;;14.02;9.00;;;;;;;;;;5067574;28;20021;-58
2023/11/04 13:46:51;;;;;;;14.30;9.00;;;;;;;;;;5049673;28;20032;-58
2023/11/04 13:49:17;;;;;;;14.00;8.50;;;;;;;;;;5066333;28;20041;-58
2023/11/04 13:51:43;;;;;;;14.93;8.23;;;;;;;;;;5066552;28;20041;-58
2023/11/04 13:54:09;;;;;;;14.57;8.30;;;;;;;;;;5067092;28;20112;-57
2023/11/04 13:56:35;;;;;;;13.85;7.72;;;;;;;;;;5063975;28;20503;-59
2023/11/04 13:59:02;;;;;;;13.90;8.10;;;;;;;;;;5048558;28;20028;-55
2023/11/04 14:01:28;;;;;;;13.68;8.00;;;;;;;;;;5066795;28;20032;-56
2023/11/04 14:03:54;;;;;;;14.60;7.95;;;;;;;;;;5067159;28;20405;-57
2023/11/04 14:06:20;;;;;;;16.48;7.90;;;;;;;;;;5066923;28;20112;-58
2023/11/04 14:08:46;;;;;;;14.45;8.40;;;;;;;;;;5060197;28;20104;-52
2023/11/04 14:11:12;;;;;;;14.60;8.02;;;;;;;;;;5066605;28;20032;-59
2023/11/04 14:13:38;;;;;;;16.48;7.75;;;;;;;;;;5061495;28;20042;-57
2023/11/04 14:16:04;;;;;;;16.10;7.88;;;;;;;;;;5066898;28;20394;-58
2023/11/04 14:18:30;;;;;;;14.20;7.60;;;;;;;;;;5059923;28;20724;-56
2023/11/04 14:20:56;;;;;;;13.77;7.72;;;;;;;;;;5059274;28;20042;-55
2023/11/04 14:23:22;;;;;;;14.32;8.20;;;;;;;;;;5036390;28;20044;-57
2023/11/04 14:25:48;;;;;;;14.38;8.40;;;;;;;;;;5062042;28;20414;-57
2023/11/04 14:28:15;;;;;;;13.75;7.90;;;;;;;;;;5067021;28;20047;-59